Latest Coastal Weather Observations for Carnarvon

IDW60701

Issued at 9:22 am WST Monday 22 December 2014 (issued every 10 minutes, with the page automatically refreshed every 10 minutes)

About coastal observations | Map of coastal stations | Coastal observations for WA | Marine services | Other Formats
Station Details ID: 006011 Name: CARNARVON AIRPORT Lat: -24.89 Lon: 113.67 Height: 4.0 m
Data from the previous 72 hours. | See also: Recent months at Carnarvon
Date/Time
WST
Temp

°C
Wind Pressure Rain
since 9am
mm
Weather Cloud Vis
km
Sea
Height
m
Swell
Dir
 
Speed
knots
Gust
knots
hPa Trend Height
m
Period
s
Dir
22/09:00am 33.3 SE 14 19 1008.7 F 0.0 Fine Clear 35 - - - -
22/08:30am 32.1 SE 15 21 1008.8 - 0.0 - - 10 - - - -
22/07:30am 28.4 SE 13 18 1008.8 - 0.0 - - 10 - - - -
22/07:00am 25.8 SSE 12 16 1008.6 - 0.0 - - 10 - - - -
22/06:00am 23.0 SSE 11 14 1008.1 R 0.0 Fine Clear 40 - - - -
22/05:30am 22.7 SSE 11 14 1007.7 - 0.0 - - 10 - - - -
22/05:00am 22.7 SSE 11 13 1007.4 - 0.0 - - 10 - - - -
22/04:30am 22.5 SSE 9 11 1007.2 - 0.0 - - 10 - - - -
22/04:00am 22.7 S 10 12 1007.2 - 0.0 - - 10 - - - -
22/03:30am 22.9 S 11 14 1007.1 - 0.0 - - 10 - - - -
22/03:00am 22.9 S 12 16 1007.0 - 0.0 - - 10 - - - -
22/02:30am 22.8 S 12 14 1007.0 - 0.0 - - 10 - - - -
22/02:00am 22.8 S 12 15 1007.3 - 0.0 - - 10 - - - -
22/01:30am 22.8 S 11 14 1007.4 - 0.0 - - 10 - - - -
22/01:00am 23.0 S 13 18 1007.6 - 0.0 - - 10 - - - -
22/12:30am 23.2 S 14 19 1008.0 - 0.0 - - 10 - - - -
22/12:00am 23.2 S 15 19 1008.3 - 0.0 - - 10 - - - -
 
Date/Time
WST
Temp

°C
Wind Pressure Rain
since 9am
mm
Weather Cloud Vis
km
Sea
Height
m
Swell
Dir
 
Speed
knots
Gust
knots
hPa Trend Height
m
Period
s
Dir
21/11:30pm 23.3 S 15 20 1008.4 - 0.0 - - 10 - - - -
21/11:00pm 23.3 S 15 21 1008.6 - 0.0 - - 10 - - - -
21/10:30pm 23.5 S 17 23 1008.6 - 0.0 - - 10 - - - -
21/10:00pm 23.6 S 16 21 1008.7 - 0.0 - - 10 - - - -
21/09:30pm 23.8 S 15 19 1008.7 - 0.0 - - 10 - - - -
21/09:00pm 24.0 S 15 21 1008.4 - 0.0 - - 10 - - - -
21/08:30pm 23.8 SSW 15 21 1008.2 - 0.0 - - 10 - - - -
21/08:00pm 23.9 SSW 15 19 1008.1 - 0.0 - - 10 - - - -
21/07:30pm 24.2 S 17 23 1007.7 - 0.0 - - 10 - - - -
21/07:00pm 24.6 SSW 16 21 1007.6 - 0.0 - - 10 - - - -
21/06:30pm 25.3 S 19 24 1007.3 - 0.0 - - 10 - - - -
21/06:00pm 25.9 SSW 17 24 1007.4 - 0.0 - - 10 - - - -
21/05:30pm 26.5 S 17 22 1007.1 - 0.0 - - 10 - - - -
21/05:00pm 26.8 SSW 17 21 1007.2 - 0.0 - - 10 - - - -
21/04:30pm 26.5 SSW 17 21 1007.4 - 0.0 - - 10 - - - -
21/04:00pm 26.7 SSW 17 20 1007.7 - 0.0 - - 10 - - - -
21/03:30pm 27.0 SSW 15 18 1008.0 - 0.0 - - 10 - - - -
21/03:00pm 27.5 SSW 15 19 1008.5 F 0.0 Haze Clear 28 - - - -
21/02:30pm 26.5 SSW 16 20 1008.8 - 0.0 - - 10 - - - -
21/02:00pm 27.4 SSW 17 21 1009.0 - 0.0 - - 10 - - - -
21/01:30pm 26.2 SSW 16 20 1009.5 - 0.0 - - 10 - - - -
21/01:00pm 26.6 SSW 17 21 1010.0 - 0.0 - - 10 - - - -
21/12:30pm 26.9 S 17 21 1010.2 - 0.0 - - 10 - - - -
21/12:00pm 26.3 S 17 22 1010.7 F 0.0 Haze Clear 28 - - - -
21/11:30am 24.9 S 18 22 1010.9 - 0.0 - - 10 - - - -
21/11:00am 25.5 S 18 22 1011.2 - 0.0 - - 10 - - - -
21/10:30am 25.5 S 16 22 1011.4 - 0.0 - - 10 - - - -
21/10:00am 25.7 S 16 21 1011.4 - 0.0 - - 10 - - - -
21/09:30am 25.0 SSE 15 21 1011.6 - 0.0 - - 10 - - - -
21/09:00am 24.3 SSE 15 21 1011.7 F 0.0 Haze Mostly clear 25 - - - -
21/08:30am 23.3 SSE 17 23 1011.5 - 0.0 - Mostly clear 10 - - - -
21/08:00am 22.0 SSE 18 23 1011.5 - 0.0 - Mostly clear 10 - - - -
21/07:30am 21.7 SSE 17 22 1011.5 - 0.0 - Mostly clear 10 - - - -
21/07:00am 20.8 SSE 15 19 1011.5 - 0.0 - Mostly clear 10 - - - -
21/06:30am 20.0 SSE 13 18 1011.2 - 0.0 - Mostly clear 10 - - - -
21/06:00am 19.4 SSE 12 15 1011.1 R 0.0 Haze Mostly clear 20 - - - -
21/05:30am 19.3 S 15 19 1010.7 - 0.0 - Partly cloudy 10 - - - -
21/05:00am 19.3 S 16 21 1010.5 - 0.0 - - 10 - - - -
21/04:30am 19.4 SSE 16 20 1010.4 - 0.0 - - 10 - - - -
21/04:00am 19.6 SSE 16 23 1010.2 - 0.0 - - 10 - - - -
21/03:30am 19.9 SSE 15 21 1010.1 - 0.0 - - 10 - - - -
21/03:00am 20.2 S 15 21 1010.0 - 0.0 - - 10 - - - -
21/02:30am 20.4 S 14 18 1010.1 - 0.0 - - 10 - - - -
21/02:00am 20.7 S 15 20 1010.2 - 0.0 - - 10 - - - -
21/01:30am 20.8 S 18 23 1010.1 - 0.0 - - 10 - - - -
21/01:00am 20.8 S 19 25 1010.2 - 0.0 - - 10 - - - -
21/12:30am 21.0 S 18 24 1010.3 - 0.0 - - 10 - - - -
21/12:00am 21.2 S 19 24 1010.5 - 0.0 - - 10 - - - -
 
Date/Time
WST
Temp

°C
Wind Pressure Rain
since 9am
mm
Weather Cloud Vis
km
Sea
Height
m
Swell
Dir
 
Speed
knots
Gust
knots
hPa Trend Height
m
Period
s
Dir
20/11:30pm 21.4 S 20 25 1010.6 - 0.0 - - 10 - - - -
20/11:00pm 21.6 S 17 23 1010.9 - 0.0 - - 10 - - - -
20/10:30pm 21.9 S 17 25 1010.9 - 0.0 - - 10 - - - -
20/10:00pm 22.0 S 19 26 1010.9 - 0.0 - - 10 - - - -
20/09:30pm 22.0 S 19 26 1010.7 - 0.0 - - 10 - - - -
20/09:00pm 22.2 S 20 26 1010.5 - 0.0 - - 10 - - - -
20/08:30pm 22.6 S 19 24 1010.3 - 0.0 - - 10 - - - -
20/08:00pm 22.9 S 19 25 1010.1 - 0.0 - - 10 - - - -
20/07:30pm 22.8 SSW 19 24 1009.8 - 0.0 - - 10 - - - -
20/07:00pm 23.2 S 18 24 1009.6 - 0.0 - - 10 - - - -
20/06:30pm 23.3 SSW 20 25 1009.5 - 0.0 - - 10 - - - -
20/06:00pm 23.9 SSW 21 28 1009.4 - 0.0 - - 10 - - - -
20/05:30pm 23.6 SSW 22 28 1009.4 - 0.0 - - 10 - - - -
20/05:00pm 24.8 SSW 20 25 1009.5 - 0.0 - - 10 - - - -
20/04:30pm 25.3 SSW 21 27 1009.7 - 0.0 - - 10 - - - -
20/04:00pm 25.2 SSW 21 27 1010.0 - 0.0 - - 10 - - - -
20/03:30pm 25.4 SSW 21 26 1010.3 - 0.0 - - 10 - - - -
20/03:00pm 24.8 SSW 21 27 1010.5 - 0.0 - - 10 - - - -
20/02:30pm 25.6 SSW 21 26 1010.6 - 0.0 - - 10 - - - -
20/02:00pm 25.6 SSW 21 25 1010.9 - 0.0 - - 10 - - - -
20/01:30pm 25.6 SSW 20 25 1011.1 - 0.0 - - 10 - - - -
20/01:00pm 25.3 SSW 19 26 1011.3 - 0.0 - - 10 - - - -
20/12:30pm 25.4 SSW 19 24 1011.7 - 0.0 - - 10 - - - -
20/12:00pm 24.9 SSW 19 24 1012.1 - 0.0 - - 10 - - - -
20/11:30am 25.9 S 18 23 1012.1 - 0.0 - Partly cloudy 10 - - - -
20/11:00am 25.1 S 18 24 1012.3 - 0.0 - Partly cloudy 10 - - - -
20/10:30am 24.8 S 17 21 1012.6 - 0.0 - Partly cloudy 10 - - - -
20/10:00am 24.7 S 16 19 1012.8 - 0.0 - - 10 - - - -
20/09:30am 24.0 S 15 19 1013.0 - 0.0 - Partly cloudy 10 - - - -
20/09:00am 24.1 S 14 18 1013.0 - 0.0 - Cloudy 10 - - - -
20/08:30am 23.4 S 13 17 1013.0 - 0.0 - Partly cloudy 10 - - - -
20/08:00am 23.1 S 12 15 1013.0 - 0.0 - Cloudy 10 - - - -
20/07:30am 22.4 S 13 17 1012.8 - 0.0 - Cloudy 10 - - - -
20/07:00am 21.9 S 13 16 1012.6 - 0.0 - Cloudy 10 - - - -
20/06:30am 21.3 S 13 18 1012.3 - 0.0 - Cloudy 10 - - - -
20/06:00am 21.4 S 13 16 1011.9 - 0.0 - Cloudy 10 - - - -
20/05:30am 21.3 S 11 15 1011.6 - 0.0 - Partly cloudy 10 - - - -
20/05:00am 21.3 S 13 17 1011.3 - 0.0 - Cloudy 10 - - - -
20/04:30am 21.3 S 12 16 1011.2 - 0.0 - Cloudy 10 - - - -
20/04:00am 21.2 S 13 17 1011.2 - 0.0 - Cloudy 10 - - - -
20/03:30am 21.5 S 14 20 1011.1 - 0.0 - Cloudy 10 - - - -
20/03:00am 21.4 S 15 21 1010.9 - 0.0 - Cloudy 10 - - - -
20/02:30am 21.3 S 15 19 1011.1 - 0.0 - Cloudy 10 - - - -
20/02:00am 21.4 S 15 19 1011.3 - 0.0 - Cloudy 10 - - - -
20/01:30am 21.6 S 13 18 1011.6 - 0.0 - Cloudy 10 - - - -
20/01:00am 21.8 S 14 19 1011.9 - 0.0 - Cloudy 10 - - - -
20/12:30am 21.9 S 15 20 1011.9 - 0.0 - Cloudy 10 - - - -
20/12:00am 22.0 S 15 20 1012.1 - 0.0 - Cloudy 10 - - - -
 
Date/Time
WST
Temp

°C
Wind Pressure Rain
since 9am
mm
Weather Cloud Vis
km
Sea
Height
m
Swell
Dir
 
Speed
knots
Gust
knots
hPa Trend Height
m
Period
s
Dir
19/11:30pm 21.8 SSW 16 23 1012.2 - 0.0 - Cloudy 10 - - - -
19/11:00pm 22.1 SSW 16 22 1012.3 - 0.0 - Cloudy 10 - - - -
19/10:39pm 22.2 SSW 17 22 1012.1 - 0.0 - Cloudy 10 - - - -
19/10:30pm 21.9 S 19 23 1012.2 - 0.0 - Cloudy 10 - - - -
19/10:00pm 22.0 S 18 23 1012.1 - 0.0 - Cloudy 10 - - - -
19/09:30pm 22.0 S 18 24 1012.0 - 0.0 - Cloudy 10 - - - -
19/09:00pm 22.2 S 17 21 1012.0 - 0.0 - Cloudy 10 - - - -
19/08:30pm 22.3 S 17 20 1011.9 - 0.0 - Partly cloudy 10 - - - -
19/08:00pm 22.3 SSW 17 22 1011.6 - 0.0 - Partly cloudy 10 - - - -
19/07:30pm 22.7 SSW 18 23 1011.1 - 0.0 - Partly cloudy 10 - - - -
19/07:00pm 23.0 SSW 17 22 1010.7 - 0.0 - Partly cloudy 10 - - - -
19/06:30pm 23.6 SSW 17 22 1010.3 - 0.0 - Partly cloudy 10 - - - -
19/06:05pm 24.1 SSW 17 21 1010.0 - 0.0 - Partly cloudy 10 - - - -
19/06:00pm 24.2 SSW 17 22 1009.9 - 0.0 - Partly cloudy 10 - - - -
19/05:30pm 24.5 SSW 17 21 1009.6 - 0.0 - Partly cloudy 10 - - - -
19/05:00pm 24.9 SW 17 22 1009.4 - 0.0 - - 10 - - - -
19/04:30pm 26.0 SSW 18 24 1009.3 - 0.0 - - 10 - - - -
19/04:00pm 26.6 SSW 17 22 1009.0 - 0.0 - - 10 - - - -
19/03:30pm 26.4 SSW 17 22 1009.2 - 0.0 - - 10 - - - -
19/03:00pm 26.9 SSW 17 23 1009.5 - 0.0 - - 10 - - - -
19/02:30pm 26.3 SSW 17 23 1009.4 - 0.0 - - 10 - - - -
19/02:00pm 27.0 SSW 17 24 1009.6 - 0.0 - - 10 - - - -
19/01:30pm 26.4 SSW 17 21 1009.8 - 0.0 - - 10 - - - -
19/01:00pm 26.2 SSW 17 19 1009.9 - 0.0 - - 10 - - - -
19/12:30pm 26.3 SSW 16 20 1010.2 - 0.0 - - 10 - - - -
19/12:00pm 25.9 SSW 16 21 1010.3 - 0.0 - - 10 - - - -
19/11:30am 26.5 SSW 15 19 1010.5 - 0.0 - - 10 - - - -
19/11:00am 25.1 SSW 15 19 1010.5 - 0.0 - - 10 - - - -
19/10:30am 25.3 SSW 14 17 1010.6 - 0.0 - - 10 - - - -
19/10:00am 25.5 SSW 13 16 1010.6 - 0.0 - - 10 - - - -
19/09:30am 24.9 S 11 16 1010.6 - 0.0 - - 10 - - - -

Other Formats:

Comma delimited format used in spreadsheet applications
http://www.bom.gov.au/fwo/IDW60701/IDW60701.94300.axf

JavaScript Object Notation format (JSON) in row-major order
http://www.bom.gov.au/fwo/IDW60701/IDW60701.94300.json